TAF Text Data
IDs:
Format:
Raw Decoded Include METAR

Data at: 2058 UTC 20 Oct 2018

METAR for:MWCR (Grand Cayman/Roberts, --, GC)
Text:MWCR 202000Z 07013KT 9999 SCT018 30/25 Q1011
Temperature: 30.0°C ( 86°F)
Dewpoint: 25.0°C ( 77°F) [RH = 75%]
Pressure (altimeter):29.85 inches Hg (1011.0 mb)
Winds:from the ENE (70 degrees) at 15 MPH (13 knots; 6.7 m/s)
Visibility:6 or more sm (10+ km)
Ceiling:at least 12,000 feet AGL
Clouds: scattered clouds at 1800 feet AGL

TAF for:MWCR (Grand Cayman/Roberts, --, GC) issued at 1700 UTC 20 Oct 2018
Text:TAF MWCR 201700Z 2018/2118 03008KT 9999 SCT016
Forecast period:1800 UTC 20 October 2018 to 1800 UTC 21 October 2018
Forecast type:FROM: standard forecast or significant change
Winds:from the NNE (30 degrees) at 9 MPH (8 knots; 4.1 m/s)
Visibility:6 or more sm (10+ km)
Ceiling:at least 12,000 feet AGL
Clouds: scattered clouds at 1600 feet AGL